Time;durP1;ratioP1;P1;durP2;ratioP2;P2;SDS_P1;SDS_P2;PMS_P1;PMS_P2;Temp;Humidity;BMP_temperature;BMP_pressure;BME280_temperature;BME280_humidity;BME280_pressure;Samples;Min_cycle;Max_cycle;Signal;HPM_P1;HPM_P2
2023/08/07 00:02:00;;;;;;;3.13;1.40;;;15.60;99.90;;;;;;4885881;29;20053;-76
2023/08/07 00:04:27;;;;;;;2.67;1.15;;;15.60;99.90;;;;;;4889040;29;20053;-77
2023/08/07 00:06:54;;;;;;;3.83;1.70;;;15.60;99.90;;;;;;4866512;29;20045;-77
2023/08/07 00:09:21;;;;;;;3.08;1.50;;;15.60;99.90;;;;;;4873468;29;20056;-77
2023/08/07 00:11:48;;;;;;;4.28;1.42;;;15.60;99.90;;;;;;4874364;29;20049;-77
2023/08/07 00:14:15;;;;;;;4.57;1.50;;;15.60;99.90;;;;;;4873854;29;20049;-76
2023/08/07 00:16:41;;;;;;;2.45;1.40;;;15.60;99.90;;;;;;4878028;29;20064;-78
2023/08/07 00:19:08;;;;;;;3.05;1.30;;;15.60;99.90;;;;;;4871618;29;20494;-79
2023/08/07 00:21:35;;;;;;;5.30;1.65;;;15.60;99.90;;;;;;4865823;29;20058;-78
2023/08/07 00:24:02;;;;;;;2.60;1.42;;;15.50;99.90;;;;;;4877467;29;20057;-79
2023/08/07 00:26:31;;;;;;;1.98;1.20;;;15.50;99.90;;;;;;4875702;29;20105;-80
2023/08/07 00:28:58;;;;;;;2.38;1.30;;;15.50;99.90;;;;;;4870132;29;20057;-78
2023/08/07 00:31:25;;;;;;;6.13;1.92;;;15.50;99.90;;;;;;4869782;29;20053;-80
2023/08/07 00:33:54;;;;;;;2.33;1.77;;;15.40;99.90;;;;;;4869821;29;21449;-80
2023/08/07 00:36:21;;;;;;;3.30;1.70;;;15.40;99.90;;;;;;4879414;29;20103;-78
2023/08/07 00:38:47;;;;;;;3.20;1.40;;;15.30;99.90;;;;;;4891059;29;20133;-79
2023/08/07 00:41:18;;;;;;;5.70;1.25;;;15.30;99.90;;;;;;4877537;29;20494;-78
2023/08/07 00:43:44;;;;;;;;;;;15.30;99.90;;;;;;4870245;29;20053;-79
2023/08/07 00:46:11;;;;;;;6.65;1.83;;;15.20;99.90;;;;;;4870307;29;19924;-80
2023/08/07 00:48:39;;;;;;;2.17;1.55;;;15.20;99.90;;;;;;4872404;29;20524;-79
2023/08/07 00:51:08;;;;;;;3.63;1.55;;;15.20;99.90;;;;;;4881991;29;20473;-78
2023/08/07 00:53:38;;;;;;;3.00;1.38;;;15.20;99.90;;;;;;4875851;29;20091;-79
2023/08/07 00:56:05;;;;;;;3.35;1.48;;;15.20;99.90;;;;;;4880878;29;20466;-80
2023/08/07 00:58:33;;;;;;;8.90;1.40;;;15.20;99.90;;;;;;4884939;29;20057;-78
2023/08/07 01:01:00;;;;;;;6.47;1.90;;;15.20;99.90;;;;;;4869755;29;20501;-79
2023/08/07 01:03:27;;;;;;;4.28;1.70;;;15.20;99.90;;;;;;4873403;29;20582;-79
2023/08/07 01:05:54;;;;;;;2.88;1.73;;;15.20;99.90;;;;;;4867120;29;20084;-79
2023/08/07 01:08:22;;;;;;;3.35;1.65;;;15.20;99.90;;;;;;4889405;29;20051;-80
2023/08/07 01:11:36;;;;;;;3.00;1.38;;;15.20;99.90;;;;;;4881377;29;20052;-78
2023/08/07 01:14:15;;;;;;;2.90;1.45;;;15.20;99.90;;;;;;4814181;29;20042;-79
2023/08/07 01:17:03;;;;;;;3.17;1.50;;;15.20;99.90;;;;;;4861734;29;20057;-78
2023/08/07 01:19:31;;;;;;;4.25;1.52;;;15.20;99.90;;;;;;4869723;29;20082;-80
2023/08/07 01:22:06;;;;;;;3.13;1.10;;;15.30;99.90;;;;;;4866024;29;20053;-80
2023/08/07 01:24:33;;;;;;;2.50;1.35;;;15.30;99.90;;;;;;4875927;29;20056;-80
2023/08/07 01:27:11;;;;;;;3.05;0.98;;;15.30;99.90;;;;;;4898785;29;20069;-78
2023/08/07 01:29:58;;;;;;;2.55;1.48;;;15.30;99.90;;;;;;4873629;29;20466;-78
2023/08/07 01:32:55;;;;;;;3.65;1.50;;;15.30;99.90;;;;;;4881457;29;20052;-79
2023/08/07 01:35:26;;;;;;;2.80;1.20;;;15.30;99.90;;;;;;4872031;29;20045;-80
2023/08/07 01:37:56;;;;;;;1.92;1.30;;;15.30;99.90;;;;;;4871518;29;20053;-78
2023/08/07 01:40:23;;;;;;;3.92;1.38;;;15.30;99.90;;;;;;4884762;29;20045;-79
2023/08/07 01:42:50;;;;;;;3.92;1.30;;;15.20;99.90;;;;;;4886336;29;20049;-79
2023/08/07 01:45:27;;;;;;;2.38;1.52;;;15.30;99.90;;;;;;4876854;29;20045;-78
2023/08/07 01:47:55;;;;;;;3.72;1.70;;;15.20;99.90;;;;;;4884801;29;20060;-78
2023/08/07 01:50:23;;;;;;;2.45;1.10;;;15.20;99.90;;;;;;4869852;29;20056;-78
2023/08/07 01:52:50;;;;;;;2.97;1.48;;;15.20;99.90;;;;;;4879455;29;20041;-80
2023/08/07 01:55:19;;;;;;;2.40;1.30;;;15.20;99.90;;;;;;4880917;29;20045;-80
2023/08/07 01:57:46;;;;;;;1.95;1.30;;;15.20;99.90;;;;;;4870671;29;20105;-79
2023/08/07 02:00:12;;;;;;;2.47;1.25;;;15.10;99.90;;;;;;4880708;29;20044;-80
2023/08/07 02:02:39;;;;;;;1.58;1.23;;;15.10;99.90;;;;;;4873392;29;20053;-79
2023/08/07 02:05:06;;;;;;;2.90;1.50;;;15.10;99.90;;;;;;4874843;29;20501;-78
2023/08/07 02:07:33;;;;;;;4.68;1.20;;;15.10;99.90;;;;;;4872892;29;20046;-79
2023/08/07 02:10:00;;;;;;;3.75;1.13;;;15.10;99.90;;;;;;4871401;29;20049;-78
2023/08/07 02:12:27;;;;;;;1.83;1.30;;;15.10;99.90;;;;;;4886231;29;20128;-80
2023/08/07 02:14:54;;;;;;;4.43;1.38;;;15.10;99.90;;;;;;4865881;29;20062;-78
2023/08/07 02:17:24;;;;;;;3.88;1.27;;;15.10;99.90;;;;;;4887335;29;20057;-79
2023/08/07 02:19:51;;;;;;;2.25;1.40;;;15.10;99.90;;;;;;4875258;29;20056;-80
2023/08/07 02:22:17;;;;;;;1.80;1.40;;;15.00;99.90;;;;;;4878550;29;20053;-78
2023/08/07 02:24:44;;;;;;;1.88;1.50;;;15.00;99.90;;;;;;4868579;29;20098;-79
2023/08/07 02:27:11;;;;;;;2.22;1.60;;;15.00;99.90;;;;;;4872765;29;20053;-79
2023/08/07 02:29:37;;;;;;;2.45;1.52;;;15.00;99.90;;;;;;4865435;29;20081;-80
2023/08/07 02:32:05;;;;;;;3.08;1.70;;;15.00;99.90;;;;;;4872800;29;20647;-80
2023/08/07 02:34:32;;;;;;;3.90;1.40;;;15.00;99.90;;;;;;4875702;29;20046;-78
2023/08/07 02:36:59;;;;;;;3.03;1.35;;;14.90;99.90;;;;;;4873857;29;20057;-79
2023/08/07 02:39:26;;;;;;;2.60;1.42;;;14.90;99.90;;;;;;4886146;29;20045;-80
2023/08/07 02:41:52;;;;;;;1.73;1.13;;;15.00;99.90;;;;;;4875082;29;20049;-79
2023/08/07 02:44:20;;;;;;;3.65;1.48;;;14.90;99.90;;;;;;4870909;29;20105;-79
2023/08/07 02:46:46;;;;;;;3.97;1.25;;;14.90;99.90;;;;;;4871394;29;20048;-80
2023/08/07 02:49:13;;;;;;;4.00;1.67;;;14.90;99.90;;;;;;4876488;29;20076;-80
2023/08/07 02:51:40;;;;;;;5.28;1.30;;;14.90;99.90;;;;;;4876863;29;20050;-80
2023/08/07 02:54:07;;;;;;;1.85;1.30;;;14.90;99.90;;;;;;4882286;29;20101;-80
2023/08/07 02:56:33;;;;;;;1.45;1.08;;;14.90;99.90;;;;;;4873820;29;20061;-79
2023/08/07 02:59:01;;;;;;;1.95;1.33;;;14.90;99.90;;;;;;4881225;29;20058;-79
2023/08/07 03:01:28;;;;;;;2.25;1.25;;;14.90;99.90;;;;;;4889195;29;20054;-80
2023/08/07 03:03:55;;;;;;;3.42;1.40;;;14.90;99.90;;;;;;4875030;29;20063;-80
2023/08/07 03:06:22;;;;;;;2.70;1.38;;;14.90;99.90;;;;;;4871585;29;20421;-80
2023/08/07 03:08:49;;;;;;;4.80;1.30;;;14.90;99.90;;;;;;4866165;29;20482;-80
2023/08/07 03:11:16;;;;;;;2.53;1.33;;;14.90;99.90;;;;;;4872056;29;20049;-79
2023/08/07 03:13:44;;;;;;;1.83;1.20;;;14.90;99.90;;;;;;4881903;29;20042;-80
2023/08/07 03:16:11;;;;;;;5.03;1.60;;;14.90;99.90;;;;;;4874843;29;20101;-80
2023/08/07 03:18:37;;;;;;;1.73;1.50;;;14.90;99.90;;;;;;4872222;29;20045;-79
2023/08/07 03:21:04;;;;;;;1.83;1.42;;;14.90;99.90;;;;;;4887532;29;20053;-80
2023/08/07 03:23:31;;;;;;;3.90;1.65;;;14.90;99.90;;;;;;4868180;29;20049;-79
2023/08/07 03:26:05;;;;;;;1.95;1.23;;;14.80;99.90;;;;;;4875397;29;20117;-79
2023/08/07 03:28:36;;;;;;;3.47;1.33;;;14.90;99.90;;;;;;4881782;29;20053;-79
2023/08/07 03:31:03;;;;;;;3.80;1.52;;;14.90;99.90;;;;;;4869283;29;20049;-79
2023/08/07 03:33:30;;;;;;;5.63;1.42;;;14.90;99.90;;;;;;4874928;29;20445;-79
2023/08/07 03:35:57;;;;;;;3.65;1.48;;;14.90;99.90;;;;;;4877279;29;20074;-79
2023/08/07 03:38:23;;;;;;;4.22;1.50;;;14.90;99.90;;;;;;4881204;29;20053;-79
2023/08/07 03:40:50;;;;;;;8.18;3.35;;;14.90;99.90;;;;;;4875690;29;20105;-79
2023/08/07 03:43:17;;;;;;;2.47;1.50;;;14.90;99.90;;;;;;4874375;29;20113;-78
2023/08/07 03:45:43;;;;;;;4.95;1.60;;;14.90;99.90;;;;;;4877827;29;20082;-79
2023/08/07 03:48:10;;;;;;;2.50;1.58;;;14.90;99.90;;;;;;4880931;29;20047;-78
2023/08/07 03:50:37;;;;;;;2.58;1.70;;;14.90;99.90;;;;;;4883907;29;20422;-79
2023/08/07 03:53:07;;;;;;;3.08;1.30;;;14.90;99.90;;;;;;4875094;29;20057;-78
2023/08/07 03:55:34;;;;;;;3.80;1.57;;;14.80;99.90;;;;;;4878893;29;20049;-78
2023/08/07 03:58:02;;;;;;;2.50;1.55;;;14.80;99.90;;;;;;4897687;29;20053;-78
2023/08/07 04:00:29;;;;;;;2.45;1.10;;;14.80;99.90;;;;;;4873932;29;20072;-79
2023/08/07 04:02:56;;;;;;;4.80;1.50;;;14.70;99.90;;;;;;4876731;29;20053;-79
2023/08/07 04:05:22;;;;;;;1.98;1.52;;;14.70;99.90;;;;;;4876617;29;20049;-79
2023/08/07 04:07:49;;;;;;;3.15;1.42;;;14.70;99.90;;;;;;4889281;29;20073;-78
2023/08/07 04:10:16;;;;;;;3.03;1.48;;;14.70;99.90;;;;;;4877446;29;20088;-79
2023/08/07 04:12:42;;;;;;;2.80;1.58;;;14.70;99.90;;;;;;4874310;29;20097;-79
2023/08/07 04:15:09;;;;;;;3.00;1.70;;;14.60;99.90;;;;;;4878941;29;20082;-79
2023/08/07 04:17:36;;;;;;;3.80;1.65;;;14.70;99.90;;;;;;4877999;29;20061;-79
2023/08/07 04:20:04;;;;;;;3.30;1.80;;;14.70;99.90;;;;;;4877447;29;20087;-79
2023/08/07 04:22:31;;;;;;;3.22;1.30;;;14.70;99.90;;;;;;4870940;29;20061;-79
2023/08/07 04:24:58;;;;;;;3.55;1.38;;;14.60;99.90;;;;;;4875758;29;20114;-78
2023/08/07 04:27:24;;;;;;;3.80;1.20;;;14.60;99.90;;;;;;4877435;29;20071;-78
2023/08/07 04:29:51;;;;;;;3.97;1.70;;;14.60;99.90;;;;;;4878815;29;20070;-78
2023/08/07 04:32:18;;;;;;;2.33;1.45;;;14.60;99.90;;;;;;4866757;29;20097;-77
2023/08/07 04:34:45;;;;;;;4.45;1.40;;;14.60;99.90;;;;;;4871650;29;20101;-77
2023/08/07 04:37:11;;;;;;;4.07;1.48;;;14.60;99.90;;;;;;4871811;29;20495;-78
2023/08/07 04:39:38;;;;;;;2.58;1.38;;;14.60;99.90;;;;;;4869068;29;20049;-77
2023/08/07 04:42:05;;;;;;;2.40;1.40;;;14.60;99.90;;;;;;4871385;29;20105;-77
2023/08/07 04:44:32;;;;;;;3.15;1.30;;;14.60;99.90;;;;;;4890127;29;20049;-77
2023/08/07 04:46:59;;;;;;;5.32;1.83;;;14.60;99.90;;;;;;4864095;29;20052;-78
2023/08/07 04:49:25;;;;;;;3.20;1.38;;;14.60;99.90;;;;;;4874404;29;20052;-77
2023/08/07 04:51:52;;;;;;;1.35;1.20;;;14.60;99.90;;;;;;4866776;29;20517;-77
2023/08/07 04:54:19;;;;;;;4.57;1.50;;;14.60;99.90;;;;;;4871659;29;20056;-79
2023/08/07 04:56:46;;;;;;;2.17;1.48;;;14.60;99.90;;;;;;4874290;29;20518;-78
2023/08/07 04:59:13;;;;;;;2.97;1.40;;;14.60;99.90;;;;;;4876424;29;20109;-77
2023/08/07 05:01:39;;;;;;;3.55;1.60;;;14.60;99.90;;;;;;4872302;29;20054;-79
2023/08/07 05:04:06;;;;;;;1.75;1.30;;;14.60;99.90;;;;;;4873105;29;20082;-78
2023/08/07 05:06:33;;;;;;;2.67;1.73;;;14.60;99.90;;;;;;4877397;29;20057;-78
2023/08/07 05:09:00;;;;;;;4.85;1.30;;;14.60;99.90;;;;;;4875506;29;20463;-79
2023/08/07 05:11:27;;;;;;;3.72;1.70;;;14.60;99.90;;;;;;4878729;29;20436;-78
2023/08/07 05:13:53;;;;;;;1.70;1.33;;;14.60;99.90;;;;;;4887912;29;20049;-78
2023/08/07 05:16:20;;;;;;;4.80;1.58;;;14.60;99.90;;;;;;4876822;29;20046;-77
2023/08/07 05:18:47;;;;;;;1.25;1.00;;;14.60;99.90;;;;;;4872607;29;20062;-77
2023/08/07 05:21:16;;;;;;;1.58;1.25;;;14.50;99.90;;;;;;4868209;29;20053;-77
2023/08/07 05:23:43;;;;;;;2.25;1.30;;;14.50;99.90;;;;;;4861978;29;20056;-77
2023/08/07 05:26:10;;;;;;;1.77;1.20;;;14.50;99.90;;;;;;4867781;29;20052;-79
2023/08/07 05:28:37;;;;;;;2.45;1.30;;;14.50;99.90;;;;;;4876382;29;20049;-79
2023/08/07 05:31:04;;;;;;;2.47;1.10;;;14.50;99.90;;;;;;4866032;29;20050;-79
2023/08/07 05:33:31;;;;;;;2.60;1.20;;;14.50;99.90;;;;;;4876269;29;20441;-79
2023/08/07 05:35:57;;;;;;;3.67;1.40;;;14.50;99.90;;;;;;4871887;29;20060;-79
2023/08/07 05:38:24;;;;;;;2.85;1.25;;;14.50;99.90;;;;;;4879323;29;20053;-78
2023/08/07 05:40:51;;;;;;;2.90;1.33;;;14.50;99.90;;;;;;4885007;29;20046;-79
2023/08/07 05:43:17;;;;;;;3.72;1.38;;;14.50;99.90;;;;;;4880372;29;20092;-78
2023/08/07 05:45:46;;;;;;;1.70;1.23;;;14.50;99.90;;;;;;4872759;29;20097;-78
2023/08/07 05:48:13;;;;;;;2.40;1.20;;;14.50;99.90;;;;;;4871577;29;20616;-77
2023/08/07 05:50:39;;;;;;;4.25;1.42;;;14.50;99.90;;;;;;4886638;29;20121;-78
2023/08/07 05:53:06;;;;;;;2.08;1.55;;;14.50;99.90;;;;;;4864364;29;20057;-78
2023/08/07 05:55:34;;;;;;;2.45;1.20;;;14.50;99.90;;;;;;4867648;29;20049;-78
2023/08/07 05:58:00;;;;;;;2.33;1.52;;;14.50;99.90;;;;;;4887844;29;20088;-78
2023/08/07 06:00:28;;;;;;;4.03;1.63;;;14.50;99.90;;;;;;4868039;29;20053;-78
2023/08/07 06:02:55;;;;;;;1.80;1.00;;;14.50;99.90;;;;;;4868525;29;20084;-79
2023/08/07 06:05:22;;;;;;;2.35;1.23;;;14.50;99.90;;;;;;4873838;29;20061;-80
2023/08/07 06:07:48;;;;;;;5.05;1.17;;;14.50;99.90;;;;;;4873859;29;20049;-78
2023/08/07 06:10:15;;;;;;;2.65;1.50;;;14.50;99.90;;;;;;4872297;29;20114;-78
2023/08/07 06:12:42;;;;;;;3.47;1.30;;;14.50;99.90;;;;;;4875131;29;20054;-79
2023/08/07 06:15:09;;;;;;;3.38;1.90;;;14.50;99.90;;;;;;4870877;29;20049;-78
2023/08/07 06:17:36;;;;;;;1.30;1.08;;;14.60;99.90;;;;;;4873634;29;20049;-78
2023/08/07 06:20:04;;;;;;;5.05;1.20;;;14.60;99.90;;;;;;4873691;29;20498;-79
2023/08/07 06:22:32;;;;;;;4.25;1.55;;;14.60;99.90;;;;;;4872626;29;20048;-79
2023/08/07 06:24:59;;;;;;;2.03;1.17;;;14.60;99.90;;;;;;4888079;29;20058;-79
2023/08/07 06:27:26;;;;;;;4.53;1.27;;;14.60;99.90;;;;;;4872831;29;20045;-78
2023/08/07 06:29:52;;;;;;;2.42;1.15;;;14.60;99.90;;;;;;4887219;29;20075;-77
2023/08/07 06:32:19;;;;;;;1.90;1.13;;;14.70;99.90;;;;;;4866173;29;20058;-78
2023/08/07 06:34:46;;;;;;;1.92;1.20;;;14.70;99.90;;;;;;4875057;29;20077;-79
2023/08/07 06:37:13;;;;;;;4.18;1.40;;;14.70;99.90;;;;;;4890649;29;20057;-78
2023/08/07 06:39:40;;;;;;;2.70;1.98;;;14.70;99.90;;;;;;4874362;29;20053;-78
2023/08/07 06:42:07;;;;;;;2.90;1.17;;;14.80;99.90;;;;;;4873026;29;20132;-78
2023/08/07 06:44:34;;;;;;;1.80;1.20;;;14.80;99.90;;;;;;4873137;29;20079;-79
2023/08/07 06:47:01;;;;;;;3.17;1.30;;;14.90;99.90;;;;;;4882721;29;20115;-80
2023/08/07 06:49:28;;;;;;;4.18;1.38;;;14.90;99.90;;;;;;4877778;29;20052;-78
2023/08/07 06:51:54;;;;;;;3.90;1.27;;;15.00;99.90;;;;;;4878285;29;20057;-77
2023/08/07 06:54:21;;;;;;;2.58;1.27;;;15.00;99.90;;;;;;4869306;29;20085;-79
2023/08/07 06:56:48;;;;;;;1.15;1.05;;;15.10;99.90;;;;;;4872695;29;20045;-79
2023/08/07 06:59:15;;;;;;;1.83;1.27;;;15.10;99.90;;;;;;4880879;29;20053;-77
2023/08/07 07:01:41;;;;;;;2.97;1.50;;;15.10;99.90;;;;;;4873920;29;20046;-79
2023/08/07 07:04:08;;;;;;;2.78;1.00;;;15.10;99.90;;;;;;4881017;29;20053;-78
2023/08/07 07:06:37;;;;;;;2.38;1.30;;;15.20;99.90;;;;;;4882052;29;20497;-79
2023/08/07 07:09:04;;;;;;;2.20;1.23;;;15.20;99.90;;;;;;4891622;29;20101;-78
2023/08/07 07:11:31;;;;;;;3.17;1.05;;;15.20;99.90;;;;;;4876923;29;20052;-79
2023/08/07 07:13:58;;;;;;;4.38;1.17;;;15.20;99.90;;;;;;4878573;29;20045;-78
2023/08/07 07:16:24;;;;;;;2.97;1.38;;;15.20;99.90;;;;;;4873213;29;20097;-78
2023/08/07 07:18:56;;;;;;;3.63;1.02;;;15.30;99.90;;;;;;4881494;29;20132;-78
2023/08/07 07:21:22;;;;;;;2.83;1.15;;;15.30;99.90;;;;;;4882613;29;20561;-79
2023/08/07 07:23:49;;;;;;;3.53;1.15;;;15.30;99.90;;;;;;4892359;29;20046;-78
2023/08/07 07:26:16;;;;;;;3.20;1.40;;;15.40;99.90;;;;;;4875327;29;20053;-79
2023/08/07 07:28:43;;;;;;;1.63;1.27;;;15.50;99.90;;;;;;4876240;29;20109;-79
2023/08/07 07:31:11;;;;;;;2.05;1.30;;;15.50;99.90;;;;;;4892382;29;20433;-79
2023/08/07 07:33:39;;;;;;;2.08;1.15;;;15.50;99.90;;;;;;4878087;29;20101;-78
2023/08/07 07:36:07;;;;;;;1.77;1.00;;;15.60;99.90;;;;;;4880424;29;20105;-78
2023/08/07 07:38:34;;;;;;;2.22;1.20;;;15.60;99.90;;;;;;4883054;29;20053;-78
2023/08/07 07:41:00;;;;;;;1.08;0.90;;;15.60;99.90;;;;;;4876770;29;20536;-77
2023/08/07 07:43:27;;;;;;;4.20;1.02;;;15.60;99.90;;;;;;4878660;29;20157;-79
2023/08/07 07:45:54;;;;;;;1.00;0.88;;;15.70;99.90;;;;;;4874169;29;20137;-79
2023/08/07 07:48:21;;;;;;;2.20;0.95;;;15.80;99.90;;;;;;4874459;29;20113;-79
2023/08/07 07:50:47;;;;;;;1.52;1.00;;;15.80;99.90;;;;;;4880020;29;20074;-79
2023/08/07 07:53:14;;;;;;;3.00;1.30;;;15.90;99.90;;;;;;4879445;29;20068;-79
2023/08/07 07:55:46;;;;;;;1.88;1.20;;;15.90;99.90;;;;;;4872240;29;20046;-79
2023/08/07 07:58:12;;;;;;;4.13;1.15;;;16.00;99.90;;;;;;4877680;29;20485;-78
2023/08/07 08:00:39;;;;;;;10.93;1.52;;;16.00;99.90;;;;;;4875772;29;20080;-78
2023/08/07 08:03:06;;;;;;;2.95;1.20;;;16.10;99.90;;;;;;4890103;29;20054;-78
2023/08/07 08:05:34;;;;;;;3.33;1.10;;;16.10;99.90;;;;;;4878490;29;20064;-78
2023/08/07 08:08:01;;;;;;;2.63;1.10;;;16.20;99.90;;;;;;4877552;29;20046;-77
2023/08/07 08:10:28;;;;;;;1.83;0.98;;;16.20;99.90;;;;;;4887685;29;20532;-78
2023/08/07 08:12:55;;;;;;;7.40;1.10;;;16.30;99.90;;;;;;4880913;29;20054;-78
2023/08/07 08:15:22;;;;;;;5.13;1.08;;;16.30;99.90;;;;;;4882800;29;20162;-77
2023/08/07 08:17:49;;;;;;;1.77;1.00;;;16.40;99.90;;;;;;4879835;29;20074;-77
2023/08/07 08:20:18;;;;;;;2.42;1.15;;;16.40;99.90;;;;;;4880053;29;20081;-78
2023/08/07 08:22:45;;;;;;;2.15;1.40;;;16.50;99.90;;;;;;4892528;29;20053;-78
2023/08/07 08:25:13;;;;;;;1.98;1.20;;;16.50;99.90;;;;;;4875671;29;20085;-78
2023/08/07 08:27:40;;;;;;;2.88;1.02;;;16.60;99.90;;;;;;4878318;29;20057;-77
2023/08/07 08:30:08;;;;;;;4.13;1.48;;;16.70;99.90;;;;;;4874750;29;20105;-78
2023/08/07 08:32:35;;;;;;;1.25;0.88;;;16.70;99.90;;;;;;4888009;29;20049;-77
2023/08/07 08:35:02;;;;;;;3.83;1.90;;;16.80;99.90;;;;;;4878330;29;20053;-78
2023/08/07 08:37:29;;;;;;;4.10;1.25;;;16.90;99.90;;;;;;4893278;29;20049;-78
2023/08/07 08:39:56;;;;;;;3.85;1.50;;;17.00;99.90;;;;;;4878721;29;20053;-77
2023/08/07 08:42:23;;;;;;;2.22;1.30;;;17.00;99.90;;;;;;4880868;29;20053;-78
2023/08/07 08:44:55;;;;;;;2.55;1.20;;;17.10;99.90;;;;;;4878893;29;20052;-78
2023/08/07 08:47:22;;;;;;;4.15;1.13;;;17.10;99.90;;;;;;4876033;29;20049;-77
2023/08/07 08:50:02;;;;;;;1.88;1.20;;;17.20;99.90;;;;;;4875536;29;20425;-78
2023/08/07 08:52:32;;;;;;;2.03;1.15;;;17.20;99.90;;;;;;4887521;29;20062;-78
2023/08/07 08:54:58;;;;;;;2.65;1.00;;;17.20;99.90;;;;;;4874031;29;20077;-78
2023/08/07 08:57:26;;;;;;;3.92;1.20;;;17.30;99.90;;;;;;4879111;29;20057;-77
2023/08/07 08:59:53;;;;;;;2.42;1.00;;;17.30;99.90;;;;;;4875275;29;20049;-78
2023/08/07 09:02:20;;;;;;;11.55;2.17;;;17.40;99.90;;;;;;4877768;29;20082;-78
2023/08/07 09:04:46;;;;;;;3.58;1.20;;;17.50;99.90;;;;;;4871326;29;20045;-78
2023/08/07 09:07:15;;;;;;;3.35;0.82;;;17.60;99.90;;;;;;4916710;23;20048;-79
2023/08/07 09:09:44;;;;;;;2.83;1.20;;;17.70;99.90;;;;;;4905808;29;20476;-79
2023/08/07 09:12:18;;;;;;;0.90;0.80;;;17.70;99.90;;;;;;4908042;29;20044;-79
2023/08/07 09:14:52;;;;;;;3.40;1.23;;;17.80;99.90;;;;;;4909184;29;20048;-79
2023/08/07 09:17:20;;;;;;;2.58;0.80;;;17.80;99.90;;;;;;4894162;29;20048;-79
2023/08/07 09:19:47;;;;;;;3.00;0.95;;;17.90;99.90;;;;;;4893256;29;20127;-79
2023/08/07 09:22:14;;;;;;;1.42;0.82;;;18.00;99.90;;;;;;4891882;29;20060;-79
2023/08/07 09:24:41;;;;;;;2.08;1.10;;;18.00;99.90;;;;;;4897741;29;20513;-79
2023/08/07 09:27:08;;;;;;;1.70;1.00;;;18.10;99.90;;;;;;4889007;29;20063;-79
2023/08/07 09:29:35;;;;;;;1.88;0.90;;;18.10;99.90;;;;;;4890924;29;20053;-78
2023/08/07 09:32:11;;;;;;;3.38;1.23;;;18.00;99.90;;;;;;4890088;29;20112;-79
2023/08/07 09:34:40;;;;;;;1.45;0.88;;;18.00;99.90;;;;;;4893502;29;20053;-79
2023/08/07 09:37:10;;;;;;;1.17;1.08;;;18.00;99.90;;;;;;4902987;29;20081;-79
2023/08/07 09:39:37;;;;;;;3.17;0.98;;;18.00;99.90;;;;;;4891598;29;20085;-78
2023/08/07 09:42:04;;;;;;;1.58;1.10;;;18.00;99.90;;;;;;4895031;29;20056;-79
2023/08/07 09:44:37;;;;;;;0.93;0.70;;;18.00;99.90;;;;;;4894174;29;20049;-79
2023/08/07 09:47:14;;;;;;;2.35;0.98;;;18.00;99.90;;;;;;4890139;29;20048;-79
2023/08/07 09:49:42;;;;;;;3.28;1.00;;;18.00;99.90;;;;;;4890564;29;20041;-79
2023/08/07 09:52:14;;;;;;;2.97;0.90;;;18.00;99.90;;;;;;4893441;29;20060;-79
2023/08/07 09:54:41;;;;;;;1.40;0.93;;;18.10;99.90;;;;;;4891683;29;20421;-79
2023/08/07 09:57:08;;;;;;;3.47;1.15;;;18.30;99.90;;;;;;4893623;29;20100;-80
2023/08/07 09:59:35;;;;;;;1.02;0.75;;;18.40;99.90;;;;;;4892136;29;20124;-79
2023/08/07 10:02:03;;;;;;;2.40;1.10;;;18.60;99.90;;;;;;4892318;29;20079;-79
2023/08/07 10:04:30;;;;;;;0.88;0.82;;;18.50;99.90;;;;;;4890671;29;20061;-79
2023/08/07 10:06:58;;;;;;;2.22;0.98;;;18.60;99.90;;;;;;4888981;29;20076;-79
2023/08/07 10:09:27;;;;;;;3.45;0.90;;;18.50;99.90;;;;;;4893902;29;20045;-79
2023/08/07 10:11:54;;;;;;;1.40;0.75;;;18.40;99.90;;;;;;4902593;29;20053;-79
2023/08/07 10:14:22;;;;;;;1.98;0.68;;;18.40;99.90;;;;;;4888456;29;20049;-79
2023/08/07 10:16:49;;;;;;;1.67;0.90;;;18.40;99.90;;;;;;4888509;29;20076;-79
2023/08/07 10:19:16;;;;;;;3.47;0.82;;;18.50;99.90;;;;;;4903585;29;20469;-79
2023/08/07 10:21:44;;;;;;;2.28;0.70;;;18.50;99.90;;;;;;4888031;29;20097;-79
2023/08/07 10:24:13;;;;;;;2.70;1.05;;;18.50;99.90;;;;;;4891515;29;20061;-79
2023/08/07 10:26:43;;;;;;;2.83;0.90;;;18.50;99.90;;;;;;4893977;29;20049;-79
2023/08/07 10:29:12;;;;;;;;;;;18.60;99.90;;;;;;4890835;29;20073;-79
2023/08/07 10:31:42;;;;;;;1.58;0.80;;;18.50;99.90;;;;;;4909306;29;19935;-79
2023/08/07 10:34:09;;;;;;;;;;;18.50;99.90;;;;;;4890633;29;20045;-79
2023/08/07 10:36:40;;;;;;;1.80;0.93;;;18.40;99.90;;;;;;4899565;29;20479;-79
2023/08/07 10:39:11;;;;;;;1.30;1.15;;;18.50;99.90;;;;;;4894005;29;20064;-79
2023/08/07 10:41:56;;;;;;;2.15;0.95;;;18.50;99.90;;;;;;4888084;29;20096;-79
2023/08/07 10:44:25;;;;;;;2.95;1.10;;;18.60;99.90;;;;;;4895052;29;20085;-79
2023/08/07 10:46:53;;;;;;;2.67;1.13;;;18.70;99.90;;;;;;4903215;29;20045;-79
2023/08/07 10:49:32;;;;;;;1.42;0.80;;;18.90;99.90;;;;;;4894918;29;20474;-79
2023/08/07 10:52:09;;;;;;;3.63;1.00;;;19.00;99.90;;;;;;4900392;29;20078;-79
2023/08/07 10:54:44;;;;;;;1.45;1.00;;;19.10;99.90;;;;;;4896463;29;20049;-78
2023/08/07 10:57:13;;;;;;;2.22;0.80;;;19.10;99.90;;;;;;4891483;29;20060;-79
2023/08/07 11:00:09;;;;;;;2.20;1.35;;;19.20;99.90;;;;;;4912886;29;20183;-79
2023/08/07 11:02:40;;;;;;;1.25;0.90;;;19.20;99.90;;;;;;4888078;29;20131;-79
2023/08/07 11:05:08;;;;;;;3.05;1.20;;;19.20;99.90;;;;;;4896100;29;20147;-79
2023/08/07 11:07:40;;;;;;;1.92;0.90;;;19.30;99.90;;;;;;4912688;29;20105;-79
2023/08/07 11:10:07;;;;;;;1.85;0.95;;;19.30;99.90;;;;;;4896198;29;20101;-79
2023/08/07 11:12:33;;;;;;;2.25;0.90;;;19.30;99.90;;;;;;4896570;29;20045;-79
2023/08/07 11:15:00;;;;;;;3.90;1.02;;;19.40;99.90;;;;;;4910719;29;20429;-79
2023/08/07 11:17:28;;;;;;;2.08;0.90;;;19.40;99.90;;;;;;4899485;29;20481;-79
2023/08/07 11:19:56;;;;;;;1.48;0.70;;;19.40;99.90;;;;;;4896393;29;20056;-80
2023/08/07 11:22:23;;;;;;;2.33;1.00;;;19.40;99.90;;;;;;4900320;29;20063;-78
2023/08/07 11:24:53;;;;;;;3.80;1.20;;;19.50;99.90;;;;;;4893792;29;20112;-79
2023/08/07 11:27:22;;;;;;;3.45;1.67;;;19.50;99.90;;;;;;4897981;29;20488;-80
2023/08/07 11:29:49;;;;;;;1.45;0.88;;;19.60;99.90;;;;;;4893970;29;20101;-79
2023/08/07 11:32:16;;;;;;;2.90;1.00;;;19.60;99.90;;;;;;4894753;29;20063;-79
2023/08/07 11:34:50;;;;;;;1.05;0.70;;;19.60;99.90;;;;;;4892945;29;20127;-79
2023/08/07 11:37:17;;;;;;;1.50;0.93;;;19.60;99.90;;;;;;4896459;29;20056;-79
2023/08/07 11:39:44;;;;;;;3.83;0.90;;;19.60;99.90;;;;;;4894084;29;20136;-79
2023/08/07 11:42:11;;;;;;;2.47;1.17;;;19.60;99.90;;;;;;4895609;29;20057;-79
2023/08/07 11:44:38;;;;;;;3.22;0.90;;;19.50;99.90;;;;;;4893791;29;20112;-79
2023/08/07 11:47:05;;;;;;;2.92;0.80;;;19.50;99.90;;;;;;4895611;29;20049;-79
2023/08/07 11:49:32;;;;;;;1.90;0.73;;;19.40;99.90;;;;;;4895939;29;20098;-79
2023/08/07 11:51:59;;;;;;;1.42;0.80;;;19.40;99.90;;;;;;4895337;29;20052;-78
2023/08/07 11:54:26;;;;;;;2.28;0.90;;;19.30;99.90;;;;;;4895375;29;20127;-79
2023/08/07 11:56:53;;;;;;;1.58;0.75;;;19.30;99.90;;;;;;4896279;29;20584;-79
2023/08/07 11:59:20;;;;;;;1.55;0.93;;;19.10;99.90;;;;;;4892563;29;20057;-79
2023/08/07 12:01:47;;;;;;;1.70;0.88;;;19.10;99.90;;;;;;4892900;29;20057;-79
2023/08/07 12:04:14;;;;;;;1.52;0.80;;;19.00;99.90;;;;;;4901770;29;20056;-79
2023/08/07 12:06:53;;;;;;;1.83;1.10;;;19.00;99.90;;;;;;4908524;29;20048;-79
2023/08/07 12:09:21;;;;;;;1.35;0.80;;;19.00;99.90;;;;;;4892395;29;20049;-79
2023/08/07 12:11:48;;;;;;;2.05;0.80;;;19.00;99.90;;;;;;4896471;29;20049;-80
2023/08/07 12:14:16;;;;;;;2.92;0.70;;;18.90;99.90;;;;;;4906897;29;20052;-79
2023/08/07 12:16:47;;;;;;;1.50;0.82;;;19.00;99.90;;;;;;4896305;29;20049;-78
2023/08/07 12:19:15;;;;;;;1.45;0.82;;;18.90;99.90;;;;;;4891581;29;20080;-79
2023/08/07 12:21:43;;;;;;;3.72;1.52;;;18.90;99.90;;;;;;4889553;29;20586;-79
2023/08/07 12:24:10;;;;;;;1.23;0.85;;;18.90;99.90;;;;;;4899845;29;20588;-79
2023/08/07 12:26:37;;;;;;;2.30;0.70;;;18.90;99.90;;;;;;4910426;29;20508;-78
2023/08/07 12:29:04;;;;;;;1.58;0.98;;;19.00;99.90;;;;;;4891689;29;20096;-77
2023/08/07 12:31:31;;;;;;;5.05;0.80;;;19.00;99.90;;;;;;4891901;29;20564;-78
2023/08/07 12:33:58;;;;;;;3.15;0.70;;;19.00;99.90;;;;;;4890343;29;20049;-78
2023/08/07 12:36:45;;;;;;;0.80;0.60;;;19.20;99.90;;;;;;4892575;29;20519;-79
2023/08/07 12:39:11;;;;;;;1.02;0.63;;;19.30;99.90;;;;;;4894066;29;20056;-78
2023/08/07 12:41:38;;;;;;;0.50;0.47;;;19.50;99.90;;;;;;4904841;29;20057;-78
2023/08/07 12:44:08;;;;;;;2.47;0.90;;;19.60;99.90;;;;;;4887625;29;20160;-78
2023/08/07 12:46:36;;;;;;;1.85;0.65;;;19.80;99.90;;;;;;4905359;29;20053;-79
2023/08/07 12:49:09;;;;;;;3.80;0.70;;;19.80;99.90;;;;;;4896705;29;20441;-79
2023/08/07 12:51:36;;;;;;;0.80;0.43;;;19.90;99.90;;;;;;4888920;29;20056;-78
2023/08/07 12:54:03;;;;;;;1.15;0.85;;;19.90;99.90;;;;;;4892201;29;20052;-79